sensor_id;sensor_type;location;lat;lon;timestamp;pressure;altitude;pressure_sealevel;temperature;humidity
75420;BME280;63998;52.488;13.428;2023-05-06T00:01:20;101250.53;;;14.24;60.16
75420;BME280;63998;52.488;13.428;2023-05-06T00:03:45;101241.81;;;14.31;60.41
75420;BME280;63998;52.488;13.428;2023-05-06T00:06:11;101249.66;;;14.28;60.55
75420;BME280;63998;52.488;13.428;2023-05-06T00:08:39;101247.91;;;14.24;61.02
75420;BME280;63998;52.488;13.428;2023-05-06T00:11:06;101248.88;;;14.09;60.80
75420;BME280;63998;52.488;13.428;2023-05-06T00:13:32;101251.50;;;13.98;61.05
75420;BME280;63998;52.488;13.428;2023-05-06T00:16:02;101248.91;;;13.98;61.40
75420;BME280;63998;52.488;13.428;2023-05-06T00:18:27;101248.06;;;13.96;61.71
75420;BME280;63998;52.488;13.428;2023-05-06T00:20:55;101255.00;;;13.97;61.32
75420;BME280;63998;52.488;13.428;2023-05-06T00:23:23;101255.03;;;13.88;61.89
75420;BME280;63998;52.488;13.428;2023-05-06T00:25:48;101249.84;;;13.79;62.27
75420;BME280;63998;52.488;13.428;2023-05-06T00:28:13;101252.47;;;13.79;62.74
75420;BME280;63998;52.488;13.428;2023-05-06T00:30:41;101248.09;;;13.84;62.92
75420;BME280;63998;52.488;13.428;2023-05-06T00:33:06;101252.41;;;13.88;62.63
75420;BME280;63998;52.488;13.428;2023-05-06T00:35:36;101260.28;;;13.73;62.98
75420;BME280;63998;52.488;13.428;2023-05-06T00:38:13;101253.34;;;13.81;62.32
75420;BME280;63998;52.488;13.428;2023-05-06T00:40:39;101238.53;;;13.83;62.83
75420;BME280;63998;52.488;13.428;2023-05-06T00:43:05;101235.88;;;13.89;62.62
75420;BME280;63998;52.488;13.428;2023-05-06T00:45:31;101229.81;;;13.83;62.55
75420;BME280;63998;52.488;13.428;2023-05-06T00:47:57;101218.53;;;13.76;63.21
75420;BME280;63998;52.488;13.428;2023-05-06T00:50:24;101213.34;;;13.70;63.36
75420;BME280;63998;52.488;13.428;2023-05-06T00:52:50;101199.44;;;13.59;63.43
75420;BME280;63998;52.488;13.428;2023-05-06T00:55:16;101198.53;;;13.60;63.90
75420;BME280;63998;52.488;13.428;2023-05-06T00:57:42;101197.69;;;13.64;63.18
75420;BME280;63998;52.488;13.428;2023-05-06T01:00:10;101187.22;;;13.70;62.94
75420;BME280;63998;52.488;13.428;2023-05-06T01:02:39;101193.31;;;13.69;63.32
75420;BME280;63998;52.488;13.428;2023-05-06T01:05:07;101192.44;;;13.61;63.45
75420;BME280;63998;52.488;13.428;2023-05-06T01:10:30;101186.41;;;13.48;64.31
75420;BME280;63998;52.488;13.428;2023-05-06T01:13:12;101176.88;;;13.43;63.58
75420;BME280;63998;52.488;13.428;2023-05-06T01:15:43;101175.09;;;13.51;63.43
75420;BME280;63998;52.488;13.428;2023-05-06T01:18:10;101178.56;;;13.50;64.32
75420;BME280;63998;52.488;13.428;2023-05-06T01:20:37;101177.75;;;13.40;63.78
75420;BME280;63998;52.488;13.428;2023-05-06T01:23:11;101169.03;;;13.40;64.02
75420;BME280;63998;52.488;13.428;2023-05-06T01:25:37;101169.91;;;13.45;64.08
75420;BME280;63998;52.488;13.428;2023-05-06T01:28:05;101162.94;;;13.47;64.13
75420;BME280;63998;52.488;13.428;2023-05-06T01:30:42;101168.16;;;13.47;64.23
75420;BME280;63998;52.488;13.428;2023-05-06T01:33:20;101173.38;;;13.44;64.50
75420;BME280;63998;52.488;13.428;2023-05-06T01:40:59;101165.59;;;13.32;64.02
75420;BME280;63998;52.488;13.428;2023-05-06T01:43:29;101167.34;;;13.28;64.70
75420;BME280;63998;52.488;13.428;2023-05-06T01:46:02;101162.97;;;13.25;64.00
75420;BME280;63998;52.488;13.428;2023-05-06T01:48:31;101163.00;;;13.22;64.19
75420;BME280;63998;52.488;13.428;2023-05-06T01:50:57;101162.97;;;13.13;64.46
75420;BME280;63998;52.488;13.428;2023-05-06T01:53:25;101166.47;;;13.09;64.88
75420;BME280;63998;52.488;13.428;2023-05-06T01:55:50;101159.53;;;13.07;65.12
75420;BME280;63998;52.488;13.428;2023-05-06T01:58:16;101169.97;;;13.08;64.34
75420;BME280;63998;52.488;13.428;2023-05-06T02:00:41;101166.47;;;13.03;64.69
75420;BME280;63998;52.488;13.428;2023-05-06T02:03:06;101156.03;;;13.03;64.34
75420;BME280;63998;52.488;13.428;2023-05-06T02:05:32;101151.69;;;13.07;64.54
75420;BME280;63998;52.488;13.428;2023-05-06T02:07:57;101148.25;;;12.97;65.11
75420;BME280;63998;52.488;13.428;2023-05-06T02:10:25;101157.81;;;12.95;65.22
75420;BME280;63998;52.488;13.428;2023-05-06T02:12:50;101156.06;;;12.88;65.16
75420;BME280;63998;52.488;13.428;2023-05-06T02:15:16;101154.34;;;12.84;64.68
75420;BME280;63998;52.488;13.428;2023-05-06T02:17:41;101156.94;;;12.67;65.34
75420;BME280;63998;52.488;13.428;2023-05-06T02:20:07;101159.56;;;12.59;65.66
75420;BME280;63998;52.488;13.428;2023-05-06T02:22:38;101169.06;;;12.27;66.26
75420;BME280;63998;52.488;13.428;2023-05-06T02:25:04;101169.91;;;12.20;66.10
75420;BME280;63998;52.488;13.428;2023-05-06T02:27:29;101169.94;;;12.29;66.61
75420;BME280;63998;52.488;13.428;2023-05-06T02:29:59;101173.44;;;12.34;66.42
75420;BME280;63998;52.488;13.428;2023-05-06T02:32:24;101169.06;;;12.38;66.37
75420;BME280;63998;52.488;13.428;2023-05-06T02:34:50;101169.97;;;12.47;65.89
75420;BME280;63998;52.488;13.428;2023-05-06T02:37:19;101171.69;;;12.51;66.46
75420;BME280;63998;52.488;13.428;2023-05-06T02:39:44;101173.44;;;12.58;66.37
75420;BME280;63998;52.488;13.428;2023-05-06T02:42:12;101175.19;;;12.56;65.78
75420;BME280;63998;52.488;13.428;2023-05-06T02:44:41;101176.94;;;12.48;66.05
75420;BME280;63998;52.488;13.428;2023-05-06T02:47:08;101180.34;;;12.37;66.81
75420;BME280;63998;52.488;13.428;2023-05-06T02:49:34;101171.66;;;12.18;66.02
75420;BME280;63998;52.488;13.428;2023-05-06T02:51:59;101170.72;;;12.02;66.67
75420;BME280;63998;52.488;13.428;2023-05-06T02:54:25;101171.56;;;11.91;66.96
75420;BME280;63998;52.488;13.428;2023-05-06T02:56:51;101172.47;;;11.99;67.18
75420;BME280;63998;52.488;13.428;2023-05-06T02:59:19;101169.88;;;11.99;67.22
75420;BME280;63998;52.488;13.428;2023-05-06T03:01:48;101169.84;;;12.02;66.94
75420;BME280;63998;52.488;13.428;2023-05-06T03:04:13;101165.53;;;12.05;67.37
75420;BME280;63998;52.488;13.428;2023-05-06T03:06:39;101162.94;;;12.04;67.02
75420;BME280;63998;52.488;13.428;2023-05-06T03:09:04;101163.81;;;12.16;66.21
75420;BME280;63998;52.488;13.428;2023-05-06T03:11:30;101145.56;;;12.12;66.51
75420;BME280;63998;52.488;13.428;2023-05-06T03:13:56;101151.66;;;11.99;66.98
75420;BME280;63998;52.488;13.428;2023-05-06T03:16:26;101148.13;;;11.81;67.57
75420;BME280;63998;52.488;13.428;2023-05-06T03:18:54;101157.66;;;11.79;67.48
75420;BME280;63998;52.488;13.428;2023-05-06T03:21:19;101152.34;;;11.67;67.94
75420;BME280;63998;52.488;13.428;2023-05-06T03:23:46;101155.78;;;11.56;67.51
75420;BME280;63998;52.488;13.428;2023-05-06T03:26:14;101150.53;;;11.51;67.85
75420;BME280;63998;52.488;13.428;2023-05-06T03:28:42;101159.22;;;11.53;67.65
75420;BME280;63998;52.488;13.428;2023-05-06T03:31:15;101154.81;;;11.40;68.25
75420;BME280;63998;52.488;13.428;2023-05-06T03:33:41;101169.50;;;11.29;68.44
75420;BME280;63998;52.488;13.428;2023-05-06T03:36:06;101166.03;;;11.27;68.60
75420;BME280;63998;52.488;13.428;2023-05-06T03:38:31;101164.25;;;11.20;68.57
75420;BME280;63998;52.488;13.428;2023-05-06T03:40:57;101167.75;;;11.28;69.24
75420;BME280;63998;52.488;13.428;2023-05-06T03:43:22;101166.09;;;11.39;68.92
75420;BME280;63998;52.488;13.428;2023-05-06T03:45:50;101166.13;;;11.42;68.27
75420;BME280;63998;52.488;13.428;2023-05-06T03:48:17;101166.13;;;11.45;68.39
75420;BME280;63998;52.488;13.428;2023-05-06T03:50:42;101160.06;;;11.50;68.52
75420;BME280;63998;52.488;13.428;2023-05-06T03:53:08;101156.63;;;11.53;67.98
75420;BME280;63998;52.488;13.428;2023-05-06T03:55:33;101154.03;;;11.53;67.86
75420;BME280;63998;52.488;13.428;2023-05-06T03:57:59;101149.75;;;11.60;68.14
75420;BME280;63998;52.488;13.428;2023-05-06T04:00:25;101143.66;;;11.62;67.92
75420;BME280;63998;52.488;13.428;2023-05-06T04:02:51;101135.00;;;11.60;67.92
75420;BME280;63998;52.488;13.428;2023-05-06T04:05:16;101140.19;;;11.57;67.86
75420;BME280;63998;52.488;13.428;2023-05-06T04:07:41;101135.81;;;11.47;67.76
75420;BME280;63998;52.488;13.428;2023-05-06T04:10:09;101140.13;;;11.51;67.58
75420;BME280;63998;52.488;13.428;2023-05-06T04:12:35;101142.63;;;11.30;67.88
75420;BME280;63998;52.488;13.428;2023-05-06T04:15:01;101146.09;;;11.23;67.63
75420;BME280;63998;52.488;13.428;2023-05-06T04:17:26;101153.88;;;11.23;68.49
75420;BME280;63998;52.488;13.428;2023-05-06T04:19:52;101146.91;;;11.19;68.64
75420;BME280;63998;52.488;13.428;2023-05-06T04:22:20;101158.22;;;11.24;68.51
75420;BME280;63998;52.488;13.428;2023-05-06T04:24:45;101156.56;;;11.35;68.40
75420;BME280;63998;52.488;13.428;2023-05-06T04:27:13;101157.44;;;11.37;68.01
75420;BME280;63998;52.488;13.428;2023-05-06T04:29:39;101160.00;;;11.34;67.89
75420;BME280;63998;52.488;13.428;2023-05-06T04:32:04;101150.34;;;11.13;67.94
75420;BME280;63998;52.488;13.428;2023-05-06T04:34:30;101159.94;;;11.20;68.28
75420;BME280;63998;52.488;13.428;2023-05-06T04:37:00;101158.19;;;11.18;68.55
75420;BME280;63998;52.488;13.428;2023-05-06T04:39:25;101164.19;;;11.13;68.04
75420;BME280;63998;52.488;13.428;2023-05-06T04:41:56;101174.69;;;11.27;68.63
75420;BME280;63998;52.488;13.428;2023-05-06T04:44:21;101169.56;;;11.36;67.96
75420;BME280;63998;52.488;13.428;2023-05-06T04:46:49;101171.28;;;11.39;67.48
75420;BME280;63998;52.488;13.428;2023-05-06T04:49:14;101165.25;;;11.44;67.27
75420;BME280;63998;52.488;13.428;2023-05-06T04:51:42;101171.34;;;11.45;67.78
75420;BME280;63998;52.488;13.428;2023-05-06T04:54:07;101173.09;;;11.52;67.70
75420;BME280;63998;52.488;13.428;2023-05-06T04:56:33;101180.00;;;11.50;66.99
75420;BME280;63998;52.488;13.428;2023-05-06T04:58:58;101178.28;;;11.47;66.42
75420;BME280;63998;52.488;13.428;2023-05-06T05:01:23;101180.00;;;11.44;67.61
75420;BME280;63998;52.488;13.428;2023-05-06T05:03:49;101180.91;;;11.47;67.17
75420;BME280;63998;52.488;13.428;2023-05-06T05:06:14;101183.50;;;11.49;67.31
75420;BME280;63998;52.488;13.428;2023-05-06T05:08:40;101173.94;;;11.46;67.02
75420;BME280;63998;52.488;13.428;2023-05-06T05:11:06;101181.78;;;11.54;67.16
75420;BME280;63998;52.488;13.428;2023-05-06T05:13:34;101195.66;;;11.53;66.55
75420;BME280;63998;52.488;13.428;2023-05-06T05:15:59;101191.34;;;11.57;66.89
75420;BME280;63998;52.488;13.428;2023-05-06T05:18:25;101200.03;;;11.60;67.05
75420;BME280;63998;52.488;13.428;2023-05-06T05:20:50;101200.84;;;11.50;66.48
75420;BME280;63998;52.488;13.428;2023-05-06T05:23:16;101205.19;;;11.52;66.33
75420;BME280;63998;52.488;13.428;2023-05-06T05:25:43;101200.88;;;11.56;67.34
75420;BME280;63998;52.488;13.428;2023-05-06T05:28:11;101205.25;;;11.63;67.02
75420;BME280;63998;52.488;13.428;2023-05-06T05:30:36;101203.50;;;11.62;67.22
75420;BME280;63998;52.488;13.428;2023-05-06T05:33:02;101207.88;;;11.66;66.89
75420;BME280;63998;52.488;13.428;2023-05-06T05:35:27;101204.38;;;11.61;66.18
75420;BME280;63998;52.488;13.428;2023-05-06T05:37:53;101197.41;;;11.54;66.56
75420;BME280;63998;52.488;13.428;2023-05-06T05:40:18;101198.25;;;11.51;66.27
75420;BME280;63998;52.488;13.428;2023-05-06T05:42:46;101202.63;;;11.57;66.96
75420;BME280;63998;52.488;13.428;2023-05-06T05:45:14;101202.66;;;11.60;66.12
75420;BME280;63998;52.488;13.428;2023-05-06T05:47:39;101211.25;;;11.53;66.13
75420;BME280;63998;52.488;13.428;2023-05-06T05:50:05;101206.09;;;11.56;66.70
75420;BME280;63998;52.488;13.428;2023-05-06T05:52:30;101208.66;;;11.51;66.07
75420;BME280;63998;52.488;13.428;2023-05-06T05:54:58;101213.88;;;11.53;66.61
75420;BME280;63998;52.488;13.428;2023-05-06T05:57:23;101205.22;;;11.57;66.60
75420;BME280;63998;52.488;13.428;2023-05-06T05:59:49;101206.13;;;11.65;66.07
75420;BME280;63998;52.488;13.428;2023-05-06T06:02:14;101203.50;;;11.59;65.59
75420;BME280;63998;52.488;13.428;2023-05-06T06:04:42;101199.13;;;11.55;65.97
75420;BME280;63998;52.488;13.428;2023-05-06T06:07:07;101200.03;;;11.60;65.77
75420;BME280;63998;52.488;13.428;2023-05-06T06:09:33;101202.59;;;11.54;66.39
75420;BME280;63998;52.488;13.428;2023-05-06T06:11:58;101205.19;;;11.54;65.60
75420;BME280;63998;52.488;13.428;2023-05-06T06:14:23;101202.63;;;11.57;66.34
75420;BME280;63998;52.488;13.428;2023-05-06T06:16:49;101207.78;;;11.51;65.74
75420;BME280;63998;52.488;13.428;2023-05-06T06:19:14;101207.78;;;11.48;65.65
75420;BME280;63998;52.488;13.428;2023-05-06T06:21:40;101213.00;;;11.49;65.85
75420;BME280;63998;52.488;13.428;2023-05-06T06:24:05;101223.38;;;11.51;66.28
75420;BME280;63998;52.488;13.428;2023-05-06T06:26:30;101223.44;;;11.57;66.40
75420;BME280;63998;52.488;13.428;2023-05-06T06:28:56;101226.06;;;11.59;65.79
75420;BME280;63998;52.488;13.428;2023-05-06T06:31:21;101230.41;;;11.67;65.77
75420;BME280;63998;52.488;13.428;2023-05-06T06:33:48;101226.91;;;11.59;65.42
75420;BME280;63998;52.488;13.428;2023-05-06T06:36:14;101227.75;;;11.55;65.90
75420;BME280;63998;52.488;13.428;2023-05-06T06:38:41;101230.34;;;11.55;65.90
75420;BME280;63998;52.488;13.428;2023-05-06T06:41:07;101229.50;;;11.62;65.60
75420;BME280;63998;52.488;13.428;2023-05-06T06:43:34;101230.38;;;11.58;65.64
75420;BME280;63998;52.488;13.428;2023-05-06T06:46:02;101227.78;;;11.58;66.17
75420;BME280;63998;52.488;13.428;2023-05-06T06:48:30;101226.09;;;11.68;65.99
75420;BME280;63998;52.488;13.428;2023-05-06T06:50:55;101222.59;;;11.66;66.42
75420;BME280;63998;52.488;13.428;2023-05-06T06:53:23;101229.56;;;11.70;66.33
75420;BME280;63998;52.488;13.428;2023-05-06T06:55:48;101230.41;;;11.67;65.54
75420;BME280;63998;52.488;13.428;2023-05-06T06:58:16;101226.84;;;11.47;65.25
75420;BME280;63998;52.488;13.428;2023-05-06T07:00:41;101233.81;;;11.54;66.21
75420;BME280;63998;52.488;13.428;2023-05-06T07:03:09;101232.13;;;11.65;65.76
75420;BME280;63998;52.488;13.428;2023-05-06T07:05:37;101228.72;;;11.72;65.70
75420;BME280;63998;52.488;13.428;2023-05-06T07:08:02;101228.69;;;11.66;65.51
75420;BME280;63998;52.488;13.428;2023-05-06T07:10:30;101233.97;;;11.75;65.22
75420;BME280;63998;52.488;13.428;2023-05-06T07:12:56;101233.09;;;11.78;65.01
75420;BME280;63998;52.488;13.428;2023-05-06T07:15:23;101240.94;;;11.79;65.04
75420;BME280;63998;52.488;13.428;2023-05-06T07:17:49;101238.34;;;11.82;65.28
75420;BME280;63998;52.488;13.428;2023-05-06T07:20:14;101236.53;;;11.71;65.14
75420;BME280;63998;52.488;13.428;2023-05-06T07:22:40;101242.66;;;11.77;65.09
75420;BME280;63998;52.488;13.428;2023-05-06T07:25:06;101245.25;;;11.79;65.43
75420;BME280;63998;52.488;13.428;2023-05-06T07:27:31;101233.97;;;11.78;65.24
75420;BME280;63998;52.488;13.428;2023-05-06T07:29:56;101236.53;;;11.72;64.54
75420;BME280;63998;52.488;13.428;2023-05-06T07:32:22;101238.25;;;11.75;65.70
75420;BME280;63998;52.488;13.428;2023-05-06T07:34:47;101235.69;;;11.76;65.45
75420;BME280;63998;52.488;13.428;2023-05-06T07:37:12;101234.78;;;11.71;65.40
75420;BME280;63998;52.488;13.428;2023-05-06T07:39:38;101237.38;;;11.68;65.27
75420;BME280;63998;52.488;13.428;2023-05-06T07:42:03;101230.50;;;11.76;66.00
75420;BME280;63998;52.488;13.428;2023-05-06T07:44:29;101232.16;;;11.68;64.88
75420;BME280;63998;52.488;13.428;2023-05-06T07:46:54;101239.09;;;11.66;65.77
75420;BME280;63998;52.488;13.428;2023-05-06T07:49:19;101235.53;;;11.49;65.75
75420;BME280;63998;52.488;13.428;2023-05-06T07:51:45;101243.34;;;11.49;66.60
75420;BME280;63998;52.488;13.428;2023-05-06T07:54:12;101245.06;;;11.47;67.15
75420;BME280;63998;52.488;13.428;2023-05-06T07:56:37;101257.91;;;11.26;67.23
75420;BME280;63998;52.488;13.428;2023-05-06T07:59:05;101257.06;;;11.30;67.58
75420;BME280;63998;52.488;13.428;2023-05-06T08:01:30;101261.38;;;11.28;67.95
75420;BME280;63998;52.488;13.428;2023-05-06T08:03:56;101267.53;;;11.36;68.26
75420;BME280;63998;52.488;13.428;2023-05-06T08:06:21;101261.47;;;11.37;68.27
75420;BME280;63998;52.488;13.428;2023-05-06T08:08:46;101268.38;;;11.38;67.89
75420;BME280;63998;52.488;13.428;2023-05-06T08:11:14;101266.66;;;11.34;68.56
75420;BME280;63998;52.488;13.428;2023-05-06T08:13:42;101271.91;;;11.43;68.34
75420;BME280;63998;52.488;13.428;2023-05-06T08:16:12;101261.56;;;11.55;68.68
75420;BME280;63998;52.488;13.428;2023-05-06T08:18:37;101272.06;;;11.67;68.18
75420;BME280;63998;52.488;13.428;2023-05-06T08:21:03;101269.31;;;11.43;68.00
75420;BME280;63998;52.488;13.428;2023-05-06T08:23:29;101278.84;;;11.44;69.04
75420;BME280;63998;52.488;13.428;2023-05-06T08:25:57;101271.09;;;11.48;69.40
75420;BME280;63998;52.488;13.428;2023-05-06T08:28:25;101271.13;;;11.58;69.41
75420;BME280;63998;52.488;13.428;2023-05-06T08:30:53;101272.91;;;11.62;69.21
75420;BME280;63998;52.488;13.428;2023-05-06T08:33:18;101280.69;;;11.57;69.07
75420;BME280;63998;52.488;13.428;2023-05-06T08:35:44;101274.63;;;11.63;69.65
75420;BME280;63998;52.488;13.428;2023-05-06T08:38:09;101278.94;;;11.62;69.59
75420;BME280;63998;52.488;13.428;2023-05-06T08:40:42;101279.03;;;11.71;69.94
75420;BME280;63998;52.488;13.428;2023-05-06T08:43:13;101285.91;;;11.63;70.03
75420;BME280;63998;52.488;13.428;2023-05-06T08:45:39;101288.59;;;11.75;69.73
75420;BME280;63998;52.488;13.428;2023-05-06T08:48:05;101298.19;;;11.79;70.80
75420;BME280;63998;52.488;13.428;2023-05-06T08:50:31;101293.00;;;11.82;69.97
75420;BME280;63998;52.488;13.428;2023-05-06T08:52:57;101294.78;;;11.86;70.01
75420;BME280;63998;52.488;13.428;2023-05-06T08:55:28;101298.22;;;11.88;70.00
75420;BME280;63998;52.488;13.428;2023-05-06T08:57:54;101304.31;;;11.89;69.27
75420;BME280;63998;52.488;13.428;2023-05-06T09:00:23;101308.63;;;11.82;69.40
75420;BME280;63998;52.488;13.428;2023-05-06T09:02:49;101306.91;;;11.87;69.82
75420;BME280;63998;52.488;13.428;2023-05-06T09:05:16;101303.41;;;11.82;69.76
75420;BME280;63998;52.488;13.428;2023-05-06T09:07:42;101308.63;;;11.82;69.86
75420;BME280;63998;52.488;13.428;2023-05-06T09:10:13;101315.59;;;11.86;69.96
75420;BME280;63998;52.488;13.428;2023-05-06T09:12:39;101308.66;;;11.85;70.18
75420;BME280;63998;52.488;13.428;2023-05-06T09:15:11;101312.19;;;12.00;70.27
75420;BME280;63998;52.488;13.428;2023-05-06T09:17:36;101309.63;;;12.06;69.82
75420;BME280;63998;52.488;13.428;2023-05-06T09:20:03;101315.72;;;12.08;69.62
75420;BME280;63998;52.488;13.428;2023-05-06T09:22:30;101317.41;;;12.03;69.75
75420;BME280;63998;52.488;13.428;2023-05-06T09:24:58;101317.44;;;12.09;69.65
75420;BME280;63998;52.488;13.428;2023-05-06T09:27:32;101317.47;;;12.13;69.13
75420;BME280;63998;52.488;13.428;2023-05-06T09:30:01;101315.75;;;12.20;68.95
75420;BME280;63998;52.488;13.428;2023-05-06T09:32:28;101324.44;;;12.19;69.23
75420;BME280;63998;52.488;13.428;2023-05-06T09:34:54;101320.09;;;12.18;68.67
75420;BME280;63998;52.488;13.428;2023-05-06T09:37:22;101321.84;;;12.20;68.40
75420;BME280;63998;52.488;13.428;2023-05-06T09:39:49;101318.31;;;12.14;67.64
75420;BME280;63998;52.488;13.428;2023-05-06T09:42:17;101322.69;;;12.15;67.42
75420;BME280;63998;52.488;13.428;2023-05-06T09:44:43;101325.31;;;12.19;68.23
75420;BME280;63998;52.488;13.428;2023-05-06T09:47:09;101321.00;;;12.26;69.08
75420;BME280;63998;52.488;13.428;2023-05-06T09:49:34;101322.78;;;12.39;68.82
75420;BME280;63998;52.488;13.428;2023-05-06T09:52:00;101324.56;;;12.46;68.04
75420;BME280;63998;52.488;13.428;2023-05-06T09:54:26;101322.84;;;12.48;67.68
75420;BME280;63998;52.488;13.428;2023-05-06T09:56:53;101328.91;;;12.50;67.48
75420;BME280;63998;52.488;13.428;2023-05-06T09:59:19;101328.06;;;12.57;68.01
75420;BME280;63998;52.488;13.428;2023-05-06T10:01:48;101333.28;;;12.56;68.36
75420;BME280;63998;52.488;13.428;2023-05-06T10:04:16;101331.53;;;12.47;67.26
75420;BME280;63998;52.488;13.428;2023-05-06T10:06:43;101334.09;;;12.49;67.14
75420;BME280;63998;52.488;13.428;2023-05-06T10:09:09;101340.19;;;12.52;67.92
75420;BME280;63998;52.488;13.428;2023-05-06T10:11:35;101333.25;;;12.54;68.64
75420;BME280;63998;52.488;13.428;2023-05-06T10:14:01;101335.88;;;12.54;68.30
75420;BME280;63998;52.488;13.428;2023-05-06T10:16:27;101335.00;;;12.55;68.62
75420;BME280;63998;52.488;13.428;2023-05-06T11:51:10;101401.19;;;11.55;69.81
75420;BME280;63998;52.488;13.428;2023-05-06T11:53:36;101402.09;;;11.58;69.20
75420;BME280;63998;52.488;13.428;2023-05-06T11:56:04;101397.00;;;11.70;69.50
75420;BME280;63998;52.488;13.428;2023-05-06T11:58:32;101409.22;;;11.77;69.39
75420;BME280;63998;52.488;13.428;2023-05-06T12:01:00;101405.88;;;11.94;69.42
75420;BME280;63998;52.488;13.428;2023-05-06T12:03:28;101408.50;;;12.00;68.23
75420;BME280;63998;52.488;13.428;2023-05-06T12:08:04;101414.69;;;12.11;68.32
75420;BME280;63998;52.488;13.428;2023-05-06T12:10:30;101428.53;;;12.07;67.73
75420;BME280;63998;52.488;13.428;2023-05-06T12:12:55;101415.53;;;12.10;67.76
75420;BME280;63998;52.488;13.428;2023-05-06T12:15:23;101422.50;;;12.15;68.01
75420;BME280;63998;52.488;13.428;2023-05-06T12:17:51;101423.38;;;12.16;66.98
75420;BME280;63998;52.488;13.428;2023-05-06T12:20:17;101430.38;;;12.23;67.85
75420;BME280;63998;52.488;13.428;2023-05-06T12:22:42;101433.91;;;12.31;67.58
75420;BME280;63998;52.488;13.428;2023-05-06T12:28:29;101439.09;;;12.28;66.32
75420;BME280;63998;52.488;13.428;2023-05-06T12:30:58;101446.00;;;12.20;66.52
75420;BME280;63998;52.488;13.428;2023-05-06T12:33:25;101447.72;;;12.18;66.20
75420;BME280;63998;52.488;13.428;2023-05-06T12:35:53;101448.56;;;12.17;66.31
75420;BME280;63998;52.488;13.428;2023-05-06T12:38:30;101449.44;;;12.16;66.11
75420;BME280;63998;52.488;13.428;2023-05-06T12:40:56;101446.00;;;12.20;66.97
75420;BME280;63998;52.488;13.428;2023-05-06T12:43:29;101453.84;;;12.28;66.22
75420;BME280;63998;52.488;13.428;2023-05-06T12:46:05;101461.66;;;12.29;65.65
75420;BME280;63998;52.488;13.428;2023-05-06T12:48:33;101465.19;;;12.37;65.34
75420;BME280;63998;52.488;13.428;2023-05-06T12:51:16;101464.38;;;12.44;66.53
75420;BME280;63998;52.488;13.428;2023-05-06T12:53:43;101470.50;;;12.52;66.20
75420;BME280;63998;52.488;13.428;2023-05-06T12:56:10;101472.25;;;12.53;65.68
75420;BME280;63998;52.488;13.428;2023-05-06T12:58:36;101476.56;;;12.47;65.09
75420;BME280;63998;52.488;13.428;2023-05-06T13:01:02;101479.09;;;12.36;64.58
75420;BME280;63998;52.488;13.428;2023-05-06T13:03:28;101482.56;;;12.37;65.66
75420;BME280;63998;52.488;13.428;2023-05-06T13:05:53;101480.78;;;12.31;65.76
75420;BME280;63998;52.488;13.428;2023-05-06T13:08:24;101482.56;;;12.38;66.09
75420;BME280;63998;52.488;13.428;2023-05-06T13:10:49;101487.78;;;12.35;65.66
75420;BME280;63998;52.488;13.428;2023-05-06T13:13:15;101485.16;;;12.34;64.72
75420;BME280;63998;52.488;13.428;2023-05-06T13:15:40;101482.50;;;12.29;65.07
75420;BME280;63998;52.488;13.428;2023-05-06T13:18:06;101478.16;;;12.28;65.54
75420;BME280;63998;52.488;13.428;2023-05-06T13:20:31;101481.69;;;12.33;65.83
75420;BME280;63998;52.488;13.428;2023-05-06T13:22:56;101476.53;;;12.44;65.36
75420;BME280;63998;52.488;13.428;2023-05-06T13:25:22;101487.78;;;12.40;65.28
75420;BME280;63998;52.488;13.428;2023-05-06T13:27:48;101484.28;;;12.33;64.28
75420;BME280;63998;52.488;13.428;2023-05-06T13:30:15;101479.09;;;12.39;65.19
75420;BME280;63998;52.488;13.428;2023-05-06T13:32:41;101491.31;;;12.46;65.58
75420;BME280;63998;52.488;13.428;2023-05-06T13:35:06;101486.09;;;12.49;65.63
75420;BME280;63998;52.488;13.428;2023-05-06T13:37:36;101482.66;;;12.47;65.87
75420;BME280;63998;52.488;13.428;2023-05-06T13:40:02;101487.91;;;12.58;65.24
75420;BME280;63998;52.488;13.428;2023-05-06T13:42:27;101480.19;;;12.73;65.62
75420;BME280;63998;52.488;13.428;2023-05-06T13:44:55;101488.88;;;12.80;65.93
75420;BME280;63998;52.488;13.428;2023-05-06T13:47:20;101481.09;;;12.89;65.45
75420;BME280;63998;52.488;13.428;2023-05-06T13:49:46;101488.94;;;12.90;65.08
75420;BME280;63998;52.488;13.428;2023-05-06T13:52:12;101497.59;;;12.83;65.61
75420;BME280;63998;52.488;13.428;2023-05-06T13:54:37;101485.41;;;12.79;65.69
75420;BME280;63998;52.488;13.428;2023-05-06T13:57:05;101488.78;;;12.58;64.35
75420;BME280;63998;52.488;13.428;2023-05-06T13:59:30;101487.97;;;12.75;65.63
75420;BME280;63998;52.488;13.428;2023-05-06T14:01:55;101486.28;;;12.86;65.95
75420;BME280;63998;52.488;13.428;2023-05-06T14:04:21;101487.16;;;12.82;65.48
75420;BME280;63998;52.488;13.428;2023-05-06T14:06:46;101479.34;;;12.88;65.81
75420;BME280;63998;52.488;13.428;2023-05-06T14:09:12;101481.09;;;12.86;65.08
75420;BME280;63998;52.488;13.428;2023-05-06T14:11:39;101481.09;;;12.89;65.61
75420;BME280;63998;52.488;13.428;2023-05-06T14:14:07;101488.09;;;12.96;66.49
75420;BME280;63998;52.488;13.428;2023-05-06T14:16:35;101486.38;;;12.98;66.40
75420;BME280;63998;52.488;13.428;2023-05-06T14:19:02;101487.22;;;12.92;66.06
75420;BME280;63998;52.488;13.428;2023-05-06T14:21:28;101486.28;;;12.86;65.49
75420;BME280;63998;52.488;13.428;2023-05-06T14:23:54;101490.66;;;12.82;65.69